createdAt,value
2022-09-03T00:00:07.022Z,100808.88
2022-09-03T00:02:45.881Z,100808.06
2022-09-03T00:05:25.732Z,100796.19
2022-09-03T00:08:10.283Z,100798.97
2022-09-03T00:10:56.290Z,100791.06
2022-09-03T00:13:31.855Z,100803.72
2022-09-03T00:16:01.943Z,100810.41
2022-09-03T00:18:33.507Z,100815.09
2022-09-03T00:21:09.863Z,100817.06
2022-09-03T00:23:40.835Z,100821.81
2022-09-03T00:26:15.440Z,100822.59
2022-09-03T00:28:48.523Z,100817.09
2022-09-03T00:31:28.403Z,100827.00
2022-09-03T00:34:05.268Z,100833.69
2022-09-03T00:36:50.967Z,100826.97
2022-09-03T00:39:21.429Z,100823.06
2022-09-03T00:42:08.678Z,100826.53
2022-09-03T00:44:48.660Z,100831.31
2022-09-03T00:47:25.599Z,100826.22
2022-09-03T00:50:31.181Z,100818.66
2022-09-03T00:53:23.099Z,100824.16
2022-09-03T00:56:02.562Z,100832.84
2022-09-03T00:58:32.831Z,100831.66
2022-09-03T01:01:06.094Z,100841.94
2022-09-03T01:04:07.756Z,100835.19
2022-09-03T01:06:58.603Z,100844.31
2022-09-03T01:09:33.570Z,100836.47
2022-09-03T01:12:18.806Z,100839.59
2022-09-03T01:14:52.666Z,100844.31
2022-09-03T01:17:33.003Z,100846.31
2022-09-03T01:20:38.497Z,100847.88
2022-09-03T01:23:27.743Z,100840.41
2022-09-03T01:26:15.982Z,100833.28
2022-09-03T01:29:07.508Z,100833.78
2022-09-03T01:31:50.088Z,100832.59
2022-09-03T01:34:45.040Z,100833.00
2022-09-03T01:37:33.865Z,100824.69
2022-09-03T01:40:38.674Z,100826.28
2022-09-03T01:43:45.491Z,100828.66
2022-09-03T01:46:24.973Z,100818.78
2022-09-03T01:48:52.386Z,100829.84
2022-09-03T01:51:25.447Z,100830.66
2022-09-03T01:54:20.978Z,100840.53
2022-09-03T01:57:35.326Z,100841.66
2022-09-03T02:00:20.508Z,100843.56
2022-09-03T02:02:51.589Z,100845.16
2022-09-03T02:05:24.174Z,100845.06
2022-09-03T02:07:57.154Z,100839.13
2022-09-03T02:10:31.591Z,100843.13
2022-09-03T02:13:09.854Z,100848.28
2022-09-03T02:15:40.075Z,100850.63
2022-09-03T02:18:15.295Z,100839.56
2022-09-03T02:20:43.056Z,100839.19
2022-09-03T02:23:11.127Z,100831.28
2022-09-03T02:25:47.174Z,100835.22
2022-09-03T02:28:16.996Z,100840.72
2022-09-03T02:30:45.510Z,100847.44
2022-09-03T02:33:13.014Z,100846.63
2022-09-03T02:35:41.741Z,100839.44
2022-09-03T02:38:11.820Z,100841.53
2022-09-03T02:40:39.739Z,100841.47
2022-09-03T02:43:14.102Z,100824.41
2022-09-03T02:45:47.674Z,100827.94
2022-09-03T02:48:22.888Z,100819.56
2022-09-03T02:50:50.485Z,100818.00
2022-09-03T02:53:18.089Z,100836.88
2022-09-03T02:55:46.046Z,100841.31
2022-09-03T02:58:14.040Z,100848.78
2022-09-03T03:00:41.570Z,100856.75
2022-09-03T03:03:08.983Z,100835.84
2022-09-03T03:05:45.269Z,100848.03
2022-09-03T03:08:15.346Z,100850.84
2022-09-03T03:10:46.728Z,100847.72
2022-09-03T03:13:14.499Z,100855.63
2022-09-03T03:15:42.528Z,100860.41
2022-09-03T03:18:12.104Z,100866.72
2022-09-03T03:20:40.478Z,100867.94
2022-09-03T03:23:09.007Z,100860.78
2022-09-03T03:25:38.744Z,100869.50
2022-09-03T03:28:07.119Z,100859.16
2022-09-03T03:30:38.636Z,100873.47
2022-09-03T03:33:07.515Z,100875.13
2022-09-03T03:35:36.216Z,100880.59
2022-09-03T03:38:04.131Z,100873.31
2022-09-03T03:40:31.558Z,100877.38
2022-09-03T03:42:59.122Z,100870.16
2022-09-03T03:45:26.780Z,100866.22
2022-09-03T03:47:58.244Z,100862.59
2022-09-03T03:50:25.870Z,100858.31
2022-09-03T03:52:53.247Z,100845.69
2022-09-03T03:55:20.779Z,100847.25
2022-09-03T03:57:48.227Z,100834.28
2022-09-03T04:00:16.067Z,100840.63
2022-09-03T04:02:43.739Z,100839.38
2022-09-03T04:05:11.125Z,100837.63
2022-09-03T04:07:38.916Z,100830.59
2022-09-03T04:10:09.493Z,100839.25
2022-09-03T04:12:36.927Z,100839.63
2022-09-03T04:15:05.343Z,100843.56
2022-09-03T04:17:32.897Z,100846.97
2022-09-03T04:20:00.270Z,100830.78
2022-09-03T04:22:29.515Z,100824.13
2022-09-03T04:24:56.863Z,100826.91
2022-09-03T04:27:24.859Z,100824.63
2022-09-03T04:29:52.246Z,100832.78
2022-09-03T04:32:38.170Z,100829.50
2022-09-03T04:35:06.052Z,100813.34
2022-09-03T04:37:33.578Z,100810.66
2022-09-03T04:40:01.057Z,100812.25
2022-09-03T04:42:28.495Z,100816.22
2022-09-03T04:44:55.896Z,100815.78
2022-09-03T04:47:23.594Z,100828.38
2022-09-03T04:49:50.991Z,100827.94
2022-09-03T04:52:19.581Z,100834.03
2022-09-03T04:54:46.949Z,100837.56
2022-09-03T04:57:14.347Z,100837.66
2022-09-03T04:59:42.792Z,100836.75
2022-09-03T05:02:10.502Z,100837.63
2022-09-03T05:04:38.037Z,100826.97
2022-09-03T05:07:05.455Z,100824.59
2022-09-03T05:09:32.894Z,100828.06
2022-09-03T05:12:02.434Z,100834.84
2022-09-03T05:14:29.851Z,100825.81
2022-09-03T05:16:57.286Z,100834.94
2022-09-03T05:19:26.090Z,100840.53
2022-09-03T05:21:53.468Z,100839.91
2022-09-03T05:24:21.188Z,100841.53
2022-09-03T05:26:49.147Z,100845.84
2022-09-03T05:29:16.630Z,100850.59
2022-09-03T05:31:44.067Z,100854.91
2022-09-03T05:34:16.392Z,100848.66
2022-09-03T05:36:47.102Z,100861.75
2022-09-03T05:39:14.543Z,100836.09
2022-09-03T05:41:44.945Z,100845.28
2022-09-03T05:44:12.401Z,100847.25
2022-09-03T05:46:41.943Z,100847.69
2022-09-03T05:49:09.624Z,100847.34
2022-09-03T05:51:39.868Z,100837.97
2022-09-03T05:54:11.396Z,100826.94
2022-09-03T05:56:40.261Z,100813.94
2022-09-03T05:59:09.555Z,100813.56
2022-09-03T06:01:39.387Z,100814.34
2022-09-03T06:04:12.678Z,100815.94
2022-09-03T06:06:42.610Z,100808.03
2022-09-03T06:09:13.707Z,100802.09
2022-09-03T06:11:42.636Z,100795.81
2022-09-03T06:14:13.253Z,100806.50
2022-09-03T06:16:43.588Z,100796.59
2022-09-03T06:19:12.056Z,100790.66
2022-09-03T06:21:44.707Z,100792.63
2022-09-03T06:24:17.590Z,100798.56
2022-09-03T06:26:45.511Z,100797.78
2022-09-03T06:29:13.418Z,100800.13
2022-09-03T06:31:40.942Z,100795.22
2022-09-03T06:34:08.568Z,100811.06
2022-09-03T06:36:36.142Z,100802.34
2022-09-03T06:39:03.747Z,100816.19
2022-09-03T06:41:35.487Z,100821.09
2022-09-03T06:44:05.676Z,100816.66
2022-09-03T06:46:39.091Z,100819.84
2022-09-03T06:49:06.885Z,100810.59
2022-09-03T06:51:34.449Z,100821.47
2022-09-03T06:54:10.627Z,100825.97
2022-09-03T06:56:41.243Z,100820.94
2022-09-03T06:59:14.083Z,100831.13
2022-09-03T07:01:45.310Z,100834.59
2022-09-03T07:04:16.300Z,100833.97
2022-09-03T07:06:44.491Z,100833.25
2022-09-03T07:09:13.408Z,100828.81
2022-09-03T07:11:47.498Z,100835.44
2022-09-03T07:14:17.415Z,100824.25
2022-09-03T07:16:46.293Z,100828.72
2022-09-03T07:19:14.266Z,100836.69
2022-09-03T07:21:48.156Z,100832.97
2022-09-03T07:24:18.129Z,100837.25
2022-09-03T07:26:48.925Z,100829.00
2022-09-03T07:29:20.607Z,100827.78
2022-09-03T07:31:51.992Z,100822.16
2022-09-03T07:34:22.121Z,100816.00
2022-09-03T07:36:51.882Z,100820.75
2022-09-03T07:39:19.994Z,100812.41
2022-09-03T07:41:47.704Z,100822.28
2022-09-03T07:44:20.210Z,100830.69
2022-09-03T07:46:51.413Z,100830.69
2022-09-03T07:49:21.219Z,100839.81
2022-09-03T07:51:52.338Z,100841.78
2022-09-03T07:54:21.573Z,100845.88
2022-09-03T07:56:49.368Z,100843.63
2022-09-03T07:59:16.739Z,100847.22
2022-09-03T08:01:44.418Z,100855.78
2022-09-03T08:04:11.967Z,100862.97
2022-09-03T08:06:39.706Z,100855.66
2022-09-03T08:09:11.362Z,100861.03
2022-09-03T08:11:40.196Z,100868.50
2022-09-03T08:14:10.032Z,100867.72
2022-09-03T08:16:47.978Z,100878.88
2022-09-03T08:19:18.239Z,100871.81
2022-09-03T08:21:45.991Z,100869.28
2022-09-03T08:24:15.992Z,100871.81
2022-09-03T08:26:47.609Z,100884.28
2022-09-03T08:29:18.356Z,100884.09
2022-09-03T08:31:45.888Z,100874.25
2022-09-03T08:34:14.686Z,100900.16
2022-09-03T08:36:42.407Z,100902.25
2022-09-03T08:39:13.458Z,100894.25
2022-09-03T08:42:11.587Z,100891.94
2022-09-03T08:44:41.914Z,100890.22
2022-09-03T08:48:06.757Z,100883.59
2022-09-03T08:50:44.399Z,100882.53
2022-09-03T08:53:46.202Z,100879.28
2022-09-03T08:56:31.143Z,100895.09
2022-09-03T08:59:00.819Z,100899.78
2022-09-03T09:01:35.349Z,100899.31
2022-09-03T09:04:24.469Z,100906.41
2022-09-03T09:07:07.656Z,100901.13
2022-09-03T09:10:07.430Z,100895.22
2022-09-03T09:12:46.790Z,100890.78
2022-09-03T09:15:42.930Z,100888.81
2022-09-03T09:18:51.778Z,100893.59
2022-09-03T09:21:27.880Z,100891.47
2022-09-03T09:24:02.088Z,100893.97
2022-09-03T09:26:30.103Z,100895.34
2022-09-03T09:29:09.448Z,100899.47
2022-09-03T09:31:40.078Z,100906.88
2022-09-03T09:34:09.288Z,100901.78
2022-09-03T09:36:52.242Z,100908.44
2022-09-03T09:39:20.968Z,100905.44
2022-09-03T09:42:10.037Z,100904.25
2022-09-03T09:44:39.622Z,100906.13
2022-09-03T09:47:39.353Z,100892.47
2022-09-03T09:50:26.362Z,100898.38
2022-09-03T09:53:06.909Z,100901.75
2022-09-03T09:55:34.871Z,100898.06
2022-09-03T09:58:14.023Z,100892.47
2022-09-03T10:00:42.903Z,100889.66
2022-09-03T10:03:13.798Z,100907.16
2022-09-03T10:05:41.656Z,100897.88
2022-09-03T10:08:21.457Z,100902.34
2022-09-03T10:10:50.499Z,100903.28
2022-09-03T10:13:40.580Z,100918.78
2022-09-03T10:16:30.339Z,100908.19
2022-09-03T10:19:06.871Z,100890.59
2022-09-03T10:21:40.611Z,100900.91
2022-09-03T10:24:23.095Z,100906.69
2022-09-03T10:26:50.508Z,100906.31
2022-09-03T10:29:22.222Z,100905.28
2022-09-03T10:31:58.759Z,100899.97
2022-09-03T10:34:38.688Z,100904.72
2022-09-03T10:37:25.011Z,100906.75
2022-09-03T10:39:58.992Z,100893.47
2022-09-03T10:42:54.361Z,100905.09
2022-09-03T10:45:47.331Z,100897.41
2022-09-03T10:48:52.120Z,100915.94
2022-09-03T10:51:34.197Z,100903.56
2022-09-03T10:54:34.365Z,100903.72
2022-09-03T10:57:45.219Z,100897.53
2022-09-03T11:00:16.222Z,100894.47
2022-09-03T11:03:05.459Z,100897.91
2022-09-03T11:05:39.309Z,100903.88
2022-09-03T11:08:17.019Z,100902.69
2022-09-03T11:10:56.535Z,100886.63
2022-09-03T11:13:31.306Z,100886.16
2022-09-03T11:16:05.043Z,100884.97
2022-09-03T11:18:40.871Z,100873.19
2022-09-03T11:21:13.132Z,100880.28
2022-09-03T11:23:58.190Z,100877.84
2022-09-03T11:26:27.832Z,100873.22
2022-09-03T11:29:01.147Z,100881.66
2022-09-03T11:32:02.367Z,100868.41
2022-09-03T11:34:34.003Z,100866.13
2022-09-03T11:37:18.653Z,100874.41
2022-09-03T11:39:56.568Z,100878.97
2022-09-03T11:42:39.065Z,100874.78
2022-09-03T11:45:32.564Z,100868.69
2022-09-03T11:48:00.066Z,100870.63
2022-09-03T11:50:33.234Z,100880.66
2022-09-03T11:53:30.140Z,100875.63
2022-09-03T11:56:13.004Z,100870.94
2022-09-03T11:58:44.173Z,100868.19
2022-09-03T12:01:17.649Z,100863.78
2022-09-03T12:03:50.018Z,100860.75
2022-09-03T12:06:39.143Z,100856.59
2022-09-03T12:09:09.489Z,100862.25
2022-09-03T12:12:06.041Z,100849.72
2022-09-03T12:14:36.552Z,100851.56
2022-09-03T12:18:15.134Z,100848.94
2022-09-03T12:20:43.706Z,100846.72
2022-09-03T12:23:14.568Z,100849.59
2022-09-03T12:25:47.490Z,100843.66
2022-09-03T12:28:23.498Z,100838.97
2022-09-03T12:30:53.462Z,100841.78
2022-09-03T12:33:23.386Z,100842.72
2022-09-03T12:36:01.934Z,100845.53
2022-09-03T12:38:30.520Z,100844.22
2022-09-03T12:43:53.296Z,100845.00
2022-09-03T12:46:24.706Z,100840.28
2022-09-03T12:52:06.162Z,100845.22
2022-09-03T12:54:39.190Z,100841.19
2022-09-03T12:57:06.881Z,100829.22
2022-09-03T12:59:38.123Z,100827.81
2022-09-03T13:02:16.744Z,100819.97
2022-09-03T13:04:46.266Z,100825.78
2022-09-03T13:07:25.795Z,100831.13
2022-09-03T13:10:04.188Z,100824.63
2022-09-03T13:12:53.348Z,100819.72
2022-09-03T13:15:26.142Z,100814.50
2022-09-03T13:18:24.518Z,100804.00
2022-09-03T13:21:30.439Z,100805.56
2022-09-03T13:24:15.275Z,100808.88
2022-09-03T13:26:49.509Z,100812.44
2022-09-03T13:29:40.175Z,100806.88
2022-09-03T13:32:36.318Z,100803.66
2022-09-03T13:35:30.671Z,100804.53
2022-09-03T13:38:23.035Z,100813.72
2022-09-03T13:41:19.728Z,100794.09
2022-09-03T13:43:57.582Z,100792.19
2022-09-03T13:46:36.196Z,100794.63
2022-09-03T13:49:50.098Z,100783.13
2022-09-03T13:52:35.012Z,100778.16
2022-09-03T13:55:09.350Z,100779.47
2022-09-03T13:57:36.885Z,100778.84
2022-09-03T14:00:13.323Z,100781.16
2022-09-03T14:03:03.779Z,100786.50
2022-09-03T14:06:09.380Z,100788.72
2022-09-03T14:09:04.693Z,100782.88
2022-09-03T14:11:59.099Z,100785.44
2022-09-03T14:14:45.806Z,100776.72
2022-09-03T14:17:25.274Z,100783.34
2022-09-03T14:20:04.145Z,100785.09
2022-09-03T14:22:59.092Z,100782.69
2022-09-03T14:25:30.735Z,100780.22
2022-09-03T14:28:36.438Z,100770.84
2022-09-03T14:31:12.641Z,100761.16
2022-09-03T14:33:48.128Z,100763.22
2022-09-03T14:36:30.277Z,100766.91
2022-09-03T14:39:28.400Z,100763.13
2022-09-03T14:42:09.059Z,100766.31
2022-09-03T14:44:55.369Z,100770.19
2022-09-03T14:47:38.344Z,100762.16
2022-09-03T14:50:29.059Z,100767.59
2022-09-03T14:53:09.279Z,100766.13
2022-09-03T14:55:57.906Z,100767.63
2022-09-03T14:58:55.350Z,100762.22
2022-09-03T15:01:37.605Z,100760.84
2022-09-03T15:04:25.706Z,100761.09
2022-09-03T15:07:08.310Z,100760.66
2022-09-03T15:10:07.017Z,100763.78
2022-09-03T15:12:43.306Z,100762.75
2022-09-03T15:15:19.543Z,100767.81
2022-09-03T15:17:55.973Z,100758.13
2022-09-03T15:20:46.943Z,100749.22
2022-09-03T15:23:38.103Z,100752.28
2022-09-03T15:26:40.112Z,100747.06
2022-09-03T15:29:16.328Z,100752.53
2022-09-03T15:32:00.751Z,100746.50
2022-09-03T15:34:48.423Z,100753.34
2022-09-03T15:37:30.323Z,100761.00
2022-09-03T15:40:15.888Z,100764.19
2022-09-03T15:42:48.824Z,100764.91
2022-09-03T15:45:28.586Z,100761.34
2022-09-03T15:48:05.873Z,100758.44
2022-09-03T15:50:50.373Z,100759.44
2022-09-03T15:53:39.890Z,100765.00
2022-09-03T15:56:23.661Z,100760.88
2022-09-03T15:58:56.369Z,100761.78
2022-09-03T16:01:36.969Z,100763.63
2022-09-03T16:04:16.562Z,100761.13
2022-09-03T16:07:21.578Z,100767.91
2022-09-03T16:10:23.858Z,100768.44
2022-09-03T16:12:53.616Z,100777.75
2022-09-03T16:15:26.037Z,100771.66
2022-09-03T16:18:10.967Z,100776.25
2022-09-03T16:20:55.242Z,100764.97
2022-09-03T16:23:28.019Z,100768.66
2022-09-03T16:26:06.968Z,100772.03
2022-09-03T16:28:48.099Z,100774.13
2022-09-03T16:31:48.117Z,100772.94
2022-09-03T16:35:03.707Z,100780.03
2022-09-03T16:37:31.053Z,100759.88
2022-09-03T16:40:01.207Z,100773.66
2022-09-03T16:42:40.459Z,100774.53
2022-09-03T16:45:17.041Z,100775.16
2022-09-03T16:48:12.728Z,100786.00
2022-09-03T16:51:07.451Z,100779.31
2022-09-03T16:54:05.123Z,100783.94
2022-09-03T16:56:58.791Z,100777.03
2022-09-03T16:59:51.047Z,100778.28
2022-09-03T17:02:40.107Z,100785.56
2022-09-03T17:05:45.718Z,100772.47
2022-09-03T17:08:54.271Z,100774.63
2022-09-03T17:11:39.836Z,100780.19
2022-09-03T17:14:29.104Z,100781.50
2022-09-03T17:17:08.896Z,100773.00
2022-09-03T17:20:14.951Z,100769.34
2022-09-03T17:23:09.851Z,100769.00
2022-09-03T17:25:39.743Z,100772.28
2022-09-03T17:28:42.668Z,100774.84
2022-09-03T17:31:28.964Z,100782.34
2022-09-03T17:34:13.466Z,100785.72
2022-09-03T17:37:10.213Z,100790.66
2022-09-03T17:40:02.327Z,100796.72
2022-09-03T17:42:54.571Z,100797.16
2022-09-03T17:45:36.523Z,100798.19
2022-09-03T17:48:18.351Z,100794.66
2022-09-03T17:50:59.375Z,100798.59
2022-09-03T17:53:39.710Z,100809.78
2022-09-03T17:56:20.249Z,100809.66
2022-09-03T17:59:19.569Z,100811.25
2022-09-03T18:02:19.132Z,100816.09
2022-09-03T18:05:18.417Z,100821.78
2022-09-03T18:08:02.749Z,100829.00
2022-09-03T18:10:51.981Z,100828.69
2022-09-03T18:13:56.810Z,100836.34
2022-09-03T18:16:28.671Z,100849.56
2022-09-03T18:19:21.180Z,100850.03
2022-09-03T18:22:08.995Z,100862.06
2022-09-03T18:25:06.026Z,100861.31
2022-09-03T18:27:53.971Z,100870.97
2022-09-03T18:30:39.923Z,100869.34
2022-09-03T18:33:26.134Z,100877.75
2022-09-03T18:36:16.846Z,100884.44
2022-09-03T18:39:03.122Z,100878.84
2022-09-03T18:42:20.588Z,100883.63
2022-09-03T18:45:42.276Z,100888.09
2022-09-03T18:48:53.505Z,100889.31
2022-09-03T18:52:17.103Z,100894.53
2022-09-03T18:55:34.239Z,100898.50
2022-09-03T18:58:49.627Z,100900.88
2022-09-03T19:01:35.563Z,100903.22
2022-09-03T19:04:33.978Z,100895.00
2022-09-03T19:07:45.803Z,100903.38
2022-09-03T19:10:43.570Z,100897.84
2022-09-03T19:13:35.480Z,100901.00
2022-09-03T19:16:29.882Z,100899.88
2022-09-03T19:19:54.831Z,100922.13
2022-09-03T19:22:55.732Z,100919.84
2022-09-03T19:25:43.339Z,100920.19
2022-09-03T19:28:37.656Z,100915.94
2022-09-03T19:31:23.405Z,100919.56
2022-09-03T19:34:32.859Z,100918.69
2022-09-03T19:37:30.961Z,100924.19
2022-09-03T19:40:35.892Z,100922.63
2022-09-03T19:43:31.587Z,100924.31
2022-09-03T19:46:29.332Z,100929.41
2022-09-03T19:49:54.100Z,100928.56
2022-09-03T19:52:46.389Z,100928.19
2022-09-03T19:55:34.937Z,100925.50
2022-09-03T19:58:42.041Z,100923.19
2022-09-03T20:01:28.396Z,100924.72
2022-09-03T20:04:17.508Z,100925.53
2022-09-03T20:07:05.270Z,100931.94
2022-09-03T20:09:56.718Z,100931.53
2022-09-03T20:12:28.926Z,100938.63
2022-09-03T20:14:56.336Z,100938.63
2022-09-03T20:17:43.503Z,100937.91
2022-09-03T20:20:28.210Z,100937.16
2022-09-03T20:22:58.102Z,100941.94
2022-09-03T20:25:36.218Z,100947.50
2022-09-03T20:28:18.444Z,100951.81
2022-09-03T20:31:17.199Z,100952.56
2022-09-03T20:33:47.611Z,100957.41
2022-09-03T20:36:32.552Z,100966.03
2022-09-03T20:39:21.203Z,100963.31
2022-09-03T20:41:57.901Z,100968.56
2022-09-03T20:44:53.409Z,100972.50
2022-09-03T20:47:57.181Z,100970.94
2022-09-03T20:50:37.450Z,100976.13
2022-09-03T20:53:15.990Z,100964.53
2022-09-03T20:55:49.023Z,100969.34
2022-09-03T20:58:48.299Z,100968.22
2022-09-03T21:01:52.240Z,100971.78
2022-09-03T21:04:57.301Z,100982.94
2022-09-03T21:07:59.811Z,100983.78
2022-09-03T21:10:33.244Z,100988.13
2022-09-03T21:13:11.603Z,100987.66
2022-09-03T21:15:46.821Z,100988.81
2022-09-03T21:18:33.483Z,100989.25
2022-09-03T21:21:43.865Z,100991.59
2022-09-03T21:24:12.440Z,100997.59
2022-09-03T21:26:50.720Z,100991.31
2022-09-03T21:29:26.080Z,100998.88
2022-09-03T21:32:04.494Z,101002.06
2022-09-03T21:34:41.036Z,101006.81
2022-09-03T21:37:13.554Z,101005.66
2022-09-03T21:39:54.626Z,100998.16
2022-09-03T21:42:36.530Z,101002.91
2022-09-03T21:45:18.273Z,101001.34
2022-09-03T21:47:53.818Z,101006.06
2022-09-03T21:50:25.551Z,101009.66
2022-09-03T21:53:12.954Z,101006.88
2022-09-03T21:56:18.782Z,101004.16
2022-09-03T21:59:23.743Z,100995.81
2022-09-03T22:02:23.670Z,101004.50
2022-09-03T22:04:51.783Z,101004.91
2022-09-03T22:07:40.662Z,101001.34
2022-09-03T22:10:21.068Z,101000.53
2022-09-03T22:13:14.810Z,101003.72
2022-09-03T22:15:50.672Z,101002.16
2022-09-03T22:18:28.937Z,100999.78
2022-09-03T22:21:19.823Z,100997.78
2022-09-03T22:24:23.330Z,100996.19
2022-09-03T22:27:10.685Z,100996.59
2022-09-03T22:29:59.763Z,100994.22
2022-09-03T22:32:40.541Z,101009.69
2022-09-03T22:35:38.916Z,101010.88
2022-09-03T22:38:40.293Z,101006.13
2022-09-03T22:41:22.761Z,101004.94
2022-09-03T22:44:07.495Z,100997.38
2022-09-03T22:47:13.265Z,100987.09
2022-09-03T22:49:47.472Z,100998.19
2022-09-03T22:52:32.102Z,100989.09
2022-09-03T22:55:11.551Z,100986.69
2022-09-03T22:57:49.684Z,100986.69
2022-09-03T23:00:17.971Z,100991.44
2022-09-03T23:02:51.133Z,100987.88
2022-09-03T23:05:35.560Z,100991.06
2022-09-03T23:08:14.373Z,100993.81
2022-09-03T23:10:53.888Z,100997.41
2022-09-03T23:13:41.994Z,100990.25
2022-09-03T23:16:32.645Z,100989.88
2022-09-03T23:19:05.403Z,100991.47
2022-09-03T23:21:41.912Z,100995.00
2022-09-03T23:24:20.423Z,101000.94
2022-09-03T23:26:51.552Z,100999.38
2022-09-03T23:29:26.230Z,101002.53
2022-09-03T23:31:57.622Z,101005.72
2022-09-03T23:34:27.095Z,100996.53
2022-09-03T23:37:34.877Z,100997.72
2022-09-03T23:40:05.457Z,100996.09
2022-09-03T23:42:54.163Z,100997.25
2022-09-03T23:45:38.775Z,100997.63
2022-09-03T23:48:45.244Z,101007.88
2022-09-03T23:51:42.265Z,101001.19
2022-09-03T23:54:18.575Z,100998.81
2022-09-03T23:57:03.714Z,100993.22
